createdAt,value
2022-10-13T00:00:11.541Z,100961.34
2022-10-13T00:05:13.023Z,100944.38
2022-10-13T00:10:14.508Z,100931.66
2022-10-13T00:15:16.260Z,100942.78
2022-10-13T00:20:17.831Z,100933.81
2022-10-13T00:25:19.348Z,100934.78
2022-10-13T00:30:21.226Z,100942.41
2022-10-13T00:35:22.640Z,100943.34
2022-10-13T00:40:24.372Z,100939.22
2022-10-13T00:45:29.476Z,100939.31
2022-10-13T00:50:39.556Z,100934.34
2022-10-13T00:55:43.476Z,100929.34
2022-10-13T01:00:50.210Z,100932.75
2022-10-13T01:05:53.664Z,100931.03
2022-10-13T01:11:28.908Z,100922.53
2022-10-13T01:16:40.882Z,100922.28
2022-10-13T01:21:53.265Z,100924.66
2022-10-13T01:27:19.296Z,100921.91
2022-10-13T01:32:31.761Z,100918.19
2022-10-13T01:37:44.677Z,100924.56
2022-10-13T01:43:09.539Z,100921.66
2022-10-13T01:48:11.232Z,100924.69
2022-10-13T01:53:14.576Z,100914.34
2022-10-13T01:58:16.026Z,100922.63
2022-10-13T02:03:29.764Z,100925.56
2022-10-13T02:08:38.207Z,100920.06
2022-10-13T02:13:46.075Z,100919.84
2022-10-13T02:18:48.022Z,100915.38
2022-10-13T02:23:49.641Z,100913.59
2022-10-13T02:28:51.620Z,100912.56
2022-10-13T02:33:53.157Z,100908.28
2022-10-13T02:38:54.634Z,100898.69
2022-10-13T02:43:56.999Z,100899.53
2022-10-13T02:48:58.803Z,100882.50
2022-10-13T02:54:00.236Z,100888.38
2022-10-13T02:59:01.719Z,100887.47
2022-10-13T03:04:03.149Z,100877.22
2022-10-13T03:09:04.825Z,100865.31
2022-10-13T03:14:06.322Z,100877.19
2022-10-13T03:19:07.819Z,100879.81
2022-10-13T03:24:09.320Z,100875.72
2022-10-13T03:29:15.649Z,100885.06
2022-10-13T03:34:17.903Z,100878.09
2022-10-13T03:39:19.365Z,100876.47
2022-10-13T03:44:20.932Z,100869.03
2022-10-13T03:49:22.370Z,100868.31
2022-10-13T03:54:24.709Z,100874.31
2022-10-13T03:59:26.139Z,100879.38
2022-10-13T04:04:27.898Z,100883.34
2022-10-13T04:09:29.358Z,100889.00
2022-10-13T04:14:30.934Z,100889.50
2022-10-13T04:19:32.402Z,100876.50
2022-10-13T04:24:33.917Z,100872.50
2022-10-13T04:29:35.366Z,100864.72
2022-10-13T04:34:36.921Z,100881.41
2022-10-13T04:39:38.424Z,100883.28
2022-10-13T04:44:39.845Z,100885.06
2022-10-13T04:49:41.276Z,100878.34
2022-10-13T04:54:43.195Z,100873.28
2022-10-13T04:59:44.624Z,100873.41
2022-10-13T05:04:46.221Z,100871.72
2022-10-13T05:09:47.799Z,100872.59
2022-10-13T05:14:52.290Z,100875.47
2022-10-13T05:19:54.144Z,100863.03
2022-10-13T05:24:55.577Z,100839.47
2022-10-13T05:29:57.091Z,100830.47
2022-10-13T05:34:58.632Z,100816.16
2022-10-13T05:40:00.175Z,100809.28
2022-10-13T05:45:01.738Z,100801.25
2022-10-13T05:50:03.658Z,100793.38
2022-10-13T05:55:09.259Z,100810.84
2022-10-13T06:00:14.160Z,100804.59
2022-10-13T06:05:18.349Z,100807.63
2022-10-13T06:10:19.973Z,100809.09
2022-10-13T06:15:25.678Z,100816.44
2022-10-13T06:20:30.649Z,100816.00
2022-10-13T06:25:32.627Z,100821.81
2022-10-13T06:30:34.088Z,100824.22
2022-10-13T06:35:36.473Z,100831.53
2022-10-13T06:40:38.491Z,100847.31
2022-10-13T06:45:40.090Z,100852.94
2022-10-13T06:50:43.031Z,100851.69
2022-10-13T06:55:47.044Z,100843.13
2022-10-13T07:00:50.603Z,100838.78
2022-10-13T07:05:52.199Z,100833.25
2022-10-13T07:10:53.655Z,100826.16
2022-10-13T07:15:55.185Z,100828.97
2022-10-13T07:20:58.875Z,100834.25
2022-10-13T07:26:01.722Z,100833.50
2022-10-13T07:31:11.908Z,100836.91
2022-10-13T07:36:14.058Z,100826.97
2022-10-13T07:41:16.156Z,100824.00
2022-10-13T07:46:17.635Z,100823.66
2022-10-13T07:51:19.705Z,100819.31
2022-10-13T07:56:21.204Z,100802.56
2022-10-13T08:01:22.710Z,100806.66
2022-10-13T08:06:24.218Z,100806.44
2022-10-13T08:11:26.138Z,100803.63
2022-10-13T08:16:28.857Z,100813.75
2022-10-13T08:21:56.889Z,100807.38
2022-10-13T08:26:51.945Z,100813.41
2022-10-13T08:31:54.278Z,100805.66
2022-10-13T08:36:56.743Z,100799.41
2022-10-13T08:41:58.604Z,100814.47
2022-10-13T08:47:12.430Z,100808.09
2022-10-13T08:52:22.633Z,100804.28
2022-10-13T08:57:24.437Z,100816.00
2022-10-13T09:02:31.344Z,100807.31
2022-10-13T09:07:36.367Z,100819.06
2022-10-13T09:12:38.173Z,100817.28
2022-10-13T09:17:41.698Z,100822.59
2022-10-13T09:22:43.840Z,100822.09
2022-10-13T09:27:58.692Z,100820.03
2022-10-13T09:33:23.280Z,100811.28
2022-10-13T09:38:26.497Z,100814.56
2022-10-13T09:43:30.006Z,100796.38
2022-10-13T09:48:36.566Z,100788.28
2022-10-13T09:53:40.642Z,100800.38
2022-10-13T09:59:07.129Z,100797.03
2022-10-13T10:04:16.240Z,100786.91
2022-10-13T10:09:44.025Z,100782.84
2022-10-13T10:14:45.765Z,100791.25
2022-10-13T10:20:03.814Z,100793.56
2022-10-13T10:25:36.187Z,100789.28
2022-10-13T10:30:47.811Z,100787.66
2022-10-13T10:35:57.428Z,100774.00
2022-10-13T10:41:07.498Z,100773.44
2022-10-13T10:46:22.570Z,100777.00
2022-10-13T10:51:29.673Z,100771.63
2022-10-13T10:56:37.417Z,100766.84
2022-10-13T11:02:03.148Z,100762.97
2022-10-13T11:07:05.168Z,100755.06
2022-10-13T11:12:22.192Z,100755.63
2022-10-13T11:17:32.407Z,100741.91
2022-10-13T11:22:33.880Z,100730.91
2022-10-13T11:27:35.327Z,100727.38
2022-10-13T11:32:36.846Z,100711.97
2022-10-13T11:38:07.700Z,100707.06
2022-10-13T11:43:22.579Z,100683.44
2022-10-13T11:49:02.000Z,100677.13
2022-10-13T11:54:35.256Z,100677.59
2022-10-13T11:59:39.970Z,100671.75
2022-10-13T12:04:46.331Z,100670.09
2022-10-13T12:09:53.875Z,100652.94
2022-10-13T12:14:59.787Z,100653.47
2022-10-13T12:20:21.630Z,100654.63
2022-10-13T12:25:26.665Z,100641.78
2022-10-13T12:30:37.210Z,100648.69
2022-10-13T12:35:38.743Z,100642.53
2022-10-13T12:40:40.340Z,100648.28
2022-10-13T12:45:44.941Z,100640.69
2022-10-13T12:50:46.654Z,100635.13
2022-10-13T12:55:53.466Z,100629.78
2022-10-13T13:01:13.178Z,100629.63
2022-10-13T13:06:14.632Z,100627.69
2022-10-13T13:11:33.443Z,100617.66
2022-10-13T13:16:34.898Z,100622.91
2022-10-13T13:21:36.347Z,100634.41
2022-10-13T13:26:37.840Z,100626.91
2022-10-13T13:31:39.272Z,100618.94
2022-10-13T13:36:41.648Z,100616.88
2022-10-13T13:41:43.097Z,100615.22
2022-10-13T13:46:44.560Z,100612.31
2022-10-13T13:51:46.056Z,100595.75
2022-10-13T13:56:47.489Z,100602.44
2022-10-13T14:01:49.000Z,100601.06
2022-10-13T14:06:51.898Z,100603.66
2022-10-13T14:11:53.315Z,100597.22
2022-10-13T14:16:54.847Z,100599.41
2022-10-13T14:21:56.359Z,100594.00
2022-10-13T14:26:58.071Z,100583.94
2022-10-13T14:31:59.533Z,100581.34
2022-10-13T14:37:01.006Z,100581.53
2022-10-13T14:42:02.519Z,100585.88
2022-10-13T14:47:03.988Z,100586.19
2022-10-13T14:52:05.544Z,100589.16
2022-10-13T14:57:08.287Z,100590.22
2022-10-13T15:02:11.203Z,100585.09
2022-10-13T15:07:12.725Z,100593.63
2022-10-13T15:12:14.219Z,100590.91
2022-10-13T15:17:15.714Z,100589.91
2022-10-13T15:22:17.170Z,100576.63
2022-10-13T15:27:18.734Z,100582.47
2022-10-13T15:32:21.013Z,100580.78
2022-10-13T15:37:22.896Z,100584.19
2022-10-13T15:42:24.597Z,100580.88
2022-10-13T15:47:26.088Z,100575.25
2022-10-13T15:52:32.219Z,100568.78
2022-10-13T15:57:36.203Z,100574.31
2022-10-13T16:02:37.762Z,100582.47
2022-10-13T16:07:40.677Z,100579.59
2022-10-13T16:12:49.221Z,100578.88
2022-10-13T16:17:54.809Z,100563.81
2022-10-13T16:22:56.254Z,100574.56
2022-10-13T16:27:59.269Z,100570.81
2022-10-13T16:33:00.712Z,100562.88
2022-10-13T16:38:02.177Z,100562.47
2022-10-13T16:43:03.616Z,100559.06
2022-10-13T16:48:05.231Z,100569.03
2022-10-13T16:53:06.734Z,100567.69
2022-10-13T16:58:08.543Z,100576.81
2022-10-13T17:03:10.405Z,100577.25
2022-10-13T17:08:11.822Z,100575.56
2022-10-13T17:13:13.267Z,100571.06
2022-10-13T17:18:14.823Z,100582.88
2022-10-13T17:23:17.112Z,100576.97
2022-10-13T17:28:19.347Z,100582.19
2022-10-13T17:33:20.840Z,100590.00
2022-10-13T17:38:23.013Z,100593.81
2022-10-13T17:43:24.473Z,100592.47
2022-10-13T17:48:25.896Z,100601.53
2022-10-13T17:53:27.331Z,100597.94
2022-10-13T17:58:29.575Z,100598.63
2022-10-13T18:03:31.218Z,100598.03
2022-10-13T18:08:32.894Z,100597.44
2022-10-13T18:13:35.324Z,100603.88
2022-10-13T18:18:38.008Z,100593.34
2022-10-13T18:23:40.553Z,100593.94
2022-10-13T18:28:45.877Z,100597.81
2022-10-13T18:33:47.681Z,100598.03
2022-10-13T18:38:50.250Z,100586.94
2022-10-13T18:43:51.905Z,100593.06
2022-10-13T18:48:53.426Z,100596.66
2022-10-13T18:53:54.942Z,100598.63
2022-10-13T18:58:59.714Z,100608.25
2022-10-13T19:04:01.768Z,100605.88
2022-10-13T19:09:09.145Z,100610.22
2022-10-13T19:14:12.682Z,100610.16
2022-10-13T19:19:14.602Z,100614.53
2022-10-13T19:24:16.081Z,100612.31
2022-10-13T19:29:17.550Z,100610.00
2022-10-13T19:34:19.105Z,100613.47
2022-10-13T19:39:23.790Z,100605.00
2022-10-13T19:44:25.780Z,100603.44
2022-10-13T19:49:27.287Z,100605.16
2022-10-13T19:54:33.623Z,100599.97
2022-10-13T19:59:36.383Z,100606.84
2022-10-13T20:04:37.821Z,100599.81
2022-10-13T20:09:39.315Z,100612.50
2022-10-13T20:14:40.919Z,100607.50
2022-10-13T20:19:43.337Z,100603.63
2022-10-13T20:24:44.779Z,100605.03
2022-10-13T20:29:46.720Z,100607.19
2022-10-13T20:34:48.190Z,100598.72
2022-10-13T20:39:49.688Z,100601.22
2022-10-13T20:44:51.230Z,100610.50
2022-10-13T20:49:53.289Z,100594.56
2022-10-13T20:54:54.795Z,100595.81
2022-10-13T20:59:56.204Z,100598.53
2022-10-13T21:04:57.741Z,100596.69
2022-10-13T21:09:59.175Z,100596.56
2022-10-13T21:15:00.620Z,100598.38
2022-10-13T21:20:02.130Z,100600.09
2022-10-13T21:25:03.832Z,100605.22
2022-10-13T21:30:06.603Z,100610.50
2022-10-13T21:35:08.718Z,100614.16
2022-10-13T21:40:10.324Z,100613.69
2022-10-13T21:45:11.800Z,100617.06
2022-10-13T21:50:13.313Z,100609.38
2022-10-13T21:55:14.881Z,100613.88
2022-10-13T22:00:16.682Z,100608.25
2022-10-13T22:05:18.262Z,100613.44
2022-10-13T22:10:19.905Z,100613.59
2022-10-13T22:15:21.331Z,100618.13
2022-10-13T22:20:22.738Z,100621.72
2022-10-13T22:25:24.229Z,100626.84
2022-10-13T22:30:25.693Z,100629.34
2022-10-13T22:35:27.171Z,100622.41
2022-10-13T22:40:29.127Z,100612.16
2022-10-13T22:45:30.593Z,100610.50
2022-10-13T22:50:34.107Z,100604.75
2022-10-13T22:55:39.821Z,100607.31
2022-10-13T23:00:44.364Z,100604.75
2022-10-13T23:05:49.079Z,100602.69
2022-10-13T23:10:50.732Z,100594.59
2022-10-13T23:15:52.181Z,100592.81
2022-10-13T23:20:56.841Z,100594.47
2022-10-13T23:26:07.492Z,100593.78
2022-10-13T23:31:14.846Z,100584.75
2022-10-13T23:36:19.695Z,100588.16
2022-10-13T23:41:21.214Z,100588.97
2022-10-13T23:46:22.788Z,100582.75
2022-10-13T23:51:25.914Z,100591.09
2022-10-13T23:56:27.626Z,100587.63
